Time;durP1;ratioP1;P1;durP2;ratioP2;P2;SDS_P1;SDS_P2;PMS_P1;PMS_P2;Temp;Humidity;BMP_temperature;BMP_pressure;BME280_temperature;BME280_humidity;BME280_pressure;Samples;Min_cycle;Max_cycle;Signal;HPM_P1;HPM_P2
2022/02/03 00:01:18;;;;;;;15.95;11.27;;;10.50;99.90;;;;;;5041377;28;20088;-72
2022/02/03 00:03:58;;;;;;;17.52;12.05;;;9.90;99.90;;;;;;5032040;28;20032;-72
2022/02/03 00:06:47;;;;;;;17.17;11.52;;;10.00;99.90;;;;;;5014224;28;20053;-72
2022/02/03 00:21:58;;;;;;;20.15;12.75;;;9.80;95.80;;;;;;5034484;28;20140;-72
2022/02/03 00:25:26;;;;;;;20.02;12.52;;;9.70;99.90;;;;;;5035777;28;20091;-72
2022/02/03 00:35:53;;;;;;;19.27;13.27;;;10.00;99.90;;;;;;5034627;28;20057;-72
2022/02/03 00:49:08;;;;;;;18.75;13.13;;;9.60;97.20;;;;;;5032144;28;20041;-72
2022/02/03 00:51:35;;;;;;;21.08;13.35;;;9.20;99.90;;;;;;5032507;28;20108;-72
2022/02/03 00:54:02;;;;;;;20.33;13.15;;;;;;;;;;5031940;28;20140;-71
2022/02/03 00:56:44;;;;;;;19.00;12.93;;;10.10;99.90;;;;;;5033425;28;20029;-72
2022/02/03 00:59:13;;;;;;;21.65;13.10;;;10.10;99.90;;;;;;5031194;28;20058;-72
2022/02/03 01:01:41;;;;;;;18.17;12.30;;;10.00;99.90;;;;;;5031971;28;20432;-72
2022/02/03 01:04:12;;;;;;;21.08;12.82;;;9.90;99.90;;;;;;5032037;28;20412;-72
2022/02/03 01:06:53;;;;;;;19.88;12.57;;;9.40;98.80;;;;;;5028832;28;20027;-72
2022/02/03 01:09:24;;;;;;;18.83;12.00;;;9.00;99.90;;;;;;5019333;28;20068;-69
2022/02/03 01:12:12;;;;;;;18.92;12.52;;;9.40;99.20;;;;;;5033021;28;20451;-72
2022/02/03 01:15:14;;;;;;;18.27;12.48;;;9.00;99.90;;;;;;5037746;28;20049;-72
2022/02/03 01:44:55;;;;;;;20.13;12.75;;;9.50;99.90;;;;;;5027078;28;20095;-72
2022/02/03 01:48:06;;;;;;;19.17;12.23;;;9.30;99.90;;;;;;5024816;28;20583;-72
2022/02/03 01:52:47;;;;;;;21.38;13.18;;;10.00;99.90;;;;;;5024622;28;20524;-72
2022/02/03 01:55:26;;;;;;;22.00;13.13;;;9.20;99.90;;;;;;5025122;28;20075;-73
2022/02/03 01:58:12;;;;;;;19.42;13.18;;;9.60;99.90;;;;;;5030355;28;20037;-73
2022/02/03 02:00:41;;;;;;;18.38;12.82;;;9.40;99.90;;;;;;5029388;28;20298;-73
2022/02/03 02:03:09;;;;;;;19.15;12.25;;;9.40;99.90;;;;;;5042790;28;20396;-72
2022/02/03 02:05:58;;;;;;;16.15;10.73;;;7.50;99.90;;;;;;5032534;28;20494;-72
2022/02/03 02:08:54;;;;;;;20.23;12.63;;;9.10;99.90;;;;;;5033873;28;20108;-72
2022/02/03 02:12:06;;;;;;;20.83;13.30;;;9.10;99.90;;;;;;5031462;28;20037;-72
2022/02/03 02:15:21;;;;;;;19.23;12.40;;;9.10;99.90;;;;;;5039467;28;20482;-73
2022/02/03 02:37:22;;;;;;;20.70;12.48;;;8.70;99.90;;;;;;5030444;28;20039;-73
2022/02/03 02:43:04;;;;;;;18.70;12.00;;;8.90;99.90;;;;;;5020552;28;20511;-73
2022/02/03 02:45:53;;;;;;;19.23;12.10;;;9.00;99.90;;;;;;5012523;28;20481;-72
2022/02/03 02:48:37;;;;;;;18.52;11.77;;;8.70;99.90;;;;;;5024433;28;20731;-73
2022/02/03 02:51:13;;;;;;;18.00;12.10;;;9.20;99.90;;;;;;5042011;28;20037;-73
2022/02/03 02:54:08;;;;;;;20.20;11.50;;;9.00;99.90;;;;;;5040594;28;20036;-73
2022/02/03 02:57:09;;;;;;;19.83;12.18;;;8.90;99.90;;;;;;5035292;28;20029;-73
2022/02/03 03:00:38;;;;;;;19.77;12.18;;;8.90;99.90;;;;;;5029854;28;20049;-72
2022/02/03 03:29:05;;;;;;;15.85;9.45;;;8.80;99.90;;;;;;5030925;28;20037;-72
2022/02/03 03:37:09;;;;;;;16.33;8.45;;;8.70;99.90;;;;;;5028413;28;20108;-72
2022/02/03 03:39:44;;;;;;;14.18;8.40;;;8.70;99.90;;;;;;5028139;28;20042;-72
2022/02/03 03:42:14;;;;;;;17.85;9.25;;;9.10;99.90;;;;;;5018446;28;20041;-72
2022/02/03 03:44:42;;;;;;;18.58;10.45;;;8.20;99.90;;;;;;5033676;28;20037;-72
2022/02/03 03:47:13;;;;;;;15.07;8.70;;;8.60;99.90;;;;;;5022063;28;20141;-73
2022/02/03 03:49:47;;;;;;;16.98;9.23;;;9.10;99.90;;;;;;5030406;28;20023;-72
2022/02/03 03:52:26;;;;;;;16.05;10.10;;;8.00;99.90;;;;;;5027512;28;20044;-72
2022/02/03 03:55:17;;;;;;;15.02;8.80;;;8.60;99.90;;;;;;5046721;28;20071;-72
2022/02/03 03:58:10;;;;;;;14.80;8.48;;;8.90;99.90;;;;;;5025400;28;20064;-72
2022/02/03 04:36:42;;;;;;;15.73;8.77;;;8.70;99.90;;;;;;5008901;28;20650;-72
2022/02/03 04:56:20;;;;;;;18.42;8.77;;;8.70;99.90;;;;;;4966367;28;20097;-72
2022/02/03 05:02:07;;;;;;;20.58;9.98;;;8.20;99.90;;;;;;4972747;28;20471;-72
2022/02/03 05:05:17;;;;;;;19.73;9.75;;;8.00;99.90;;;;;;4965596;28;20026;-73
2022/02/03 05:11:23;;;;;;;19.35;10.15;;;8.50;99.90;;;;;;5025845;28;20117;-73
2022/02/03 05:17:50;;;;;;;18.48;9.63;;;9.00;99.90;;;;;;5033406;28;20411;-72
2022/02/03 05:27:08;;;;;;;18.60;9.70;;;8.50;99.90;;;;;;5040948;28;20457;-73
2022/02/03 05:52:28;;;;;;;22.20;10.60;;;8.20;99.90;;;;;;5013611;28;20072;-69
2022/02/03 06:05:45;;;;;;;20.48;10.10;;;8.20;99.90;;;;;;4998738;28;20058;-70
2022/02/03 06:08:34;;;;;;;27.73;10.63;;;8.40;99.90;;;;;;4996814;28;20041;-70
2022/02/03 06:21:32;;;;;;;18.25;9.40;;;8.70;99.90;;;;;;5025218;28;20554;-72
2022/02/03 06:29:17;;;;;;;21.85;9.32;;;8.20;99.90;;;;;;5007309;28;20076;-73
2022/02/03 06:31:48;;;;;;;17.08;8.55;;;8.00;99.90;;;;;;5003215;28;20057;-73
2022/02/03 06:34:14;;;;;;;19.00;8.68;;;8.30;99.90;;;;;;5011107;28;20104;-73
2022/02/03 06:36:41;;;;;;;16.27;7.38;;;8.30;99.90;;;;;;5004649;28;20486;-73
2022/02/03 06:39:18;;;;;;;15.02;8.32;;;8.10;99.90;;;;;;5004347;28;20049;-73
2022/02/03 06:41:46;;;;;;;19.48;9.02;;;8.20;99.90;;;;;;5011095;28;20112;-73
2022/02/03 06:44:14;;;;;;;15.75;8.23;;;6.40;99.90;;;;;;5003425;28;20030;-73
2022/02/03 06:46:44;;;;;;;15.25;7.88;;;8.50;99.90;;;;;;5006380;28;20052;-70
2022/02/03 06:49:17;;;;;;;20.23;8.30;;;8.30;99.90;;;;;;5007869;28;20781;-72
2022/02/03 06:51:53;;;;;;;15.27;7.93;;;8.10;99.90;;;;;;5003563;28;20108;-73
2022/02/03 06:54:30;;;;;;;17.45;8.35;;;;;;;;;;5007452;28;20042;-73
2022/02/03 06:57:01;;;;;;;17.90;7.25;;;;;;;;;;5008475;28;20033;-72
2022/02/03 06:59:37;;;;;;;15.70;7.95;;;8.00;99.90;;;;;;5003389;28;20135;-72
2022/02/03 07:02:05;;;;;;;17.73;8.75;;;8.20;99.90;;;;;;5006562;28;20058;-72
2022/02/03 07:04:39;;;;;;;17.55;8.40;;;9.40;99.90;;;;;;5006430;28;20034;-72
2022/02/03 07:07:05;;;;;;;18.27;7.95;;;;;;;;;;5033261;28;20056;-72
2022/02/03 07:09:31;;;;;;;17.10;7.20;;;8.50;99.90;;;;;;5026217;28;20032;-72
2022/02/03 07:11:57;;;;;;;16.67;8.55;;;;;;;;;;5038937;28;20025;-72
2022/02/03 07:14:24;;;;;;;15.90;7.40;;;;;;;;;;5042718;28;20029;-73
2022/02/03 07:16:52;;;;;;;14.18;7.90;;;;;;;;;;5033079;28;20021;-73
2022/02/03 07:19:19;;;;;;;22.42;11.48;;;;;;;;;;5033550;28;20468;-73
2022/02/03 07:21:47;;;;;;;16.95;8.50;;;8.70;99.90;;;;;;5028664;28;20570;-73
2022/02/03 07:24:13;;;;;;;16.10;7.60;;;;;;;;;;5027124;28;20020;-72
2022/02/03 07:26:39;;;;;;;13.25;7.05;;;8.20;99.90;;;;;;5032408;28;20030;-72
2022/02/03 07:29:05;;;;;;;16.45;7.22;;;;;;;;;;5029621;28;20061;-73
2022/02/03 07:31:31;;;;;;;13.77;6.93;;;8.80;99.90;;;;;;5030009;28;20142;-73
2022/02/03 07:33:58;;;;;;;13.40;6.70;;;;;;;;;;5025640;28;20108;-73
2022/02/03 07:36:25;;;;;;;15.93;7.32;;;;;;;;;;5028060;28;20024;-73
2022/02/03 07:38:52;;;;;;;14.57;7.45;;;;;;;;;;5041754;28;20021;-73
2022/02/03 07:41:18;;;;;;;12.07;5.63;;;8.90;99.90;;;;;;5031976;28;20107;-73
2022/02/03 07:43:44;;;;;;;28.42;13.60;;;8.60;99.90;;;;;;5028753;28;20068;-73
2022/02/03 07:46:10;;;;;;;13.75;7.00;;;;;;;;;;5029948;28;20567;-72
2022/02/03 07:48:35;;;;;;;13.15;6.45;;;8.80;99.90;;;;;;5029349;28;20029;-73
2022/02/03 07:51:01;;;;;;;12.65;6.82;;;;;;;;;;5039328;28;20112;-73
2022/02/03 07:53:28;;;;;;;12.00;6.22;;;;;;;;;;5034400;28;20025;-73
2022/02/03 07:55:53;;;;;;;10.60;5.85;;;8.80;99.90;;;;;;5030851;28;20029;-73
2022/02/03 07:58:21;;;;;;;12.48;6.30;;;;;;;;;;5033885;28;20029;-73
2022/02/03 08:00:47;;;;;;;14.20;6.10;;;8.30;99.90;;;;;;5039847;28;20041;-73
2022/02/03 08:03:14;;;;;;;12.90;6.18;;;8.70;99.90;;;;;;5038371;28;20028;-73
2022/02/03 08:05:44;;;;;;;11.85;5.80;;;8.40;99.90;;;;;;5032889;28;20033;-73
2022/02/03 08:08:24;;;;;;;12.02;5.70;;;8.20;99.90;;;;;;5033020;28;20038;-73
2022/02/03 08:10:52;;;;;;;9.13;4.75;;;8.90;99.90;;;;;;5038177;28;20025;-73
2022/02/03 08:13:48;;;;;;;11.02;5.50;;;8.60;99.90;;;;;;5043238;28;20028;-73
2022/02/03 08:16:18;;;;;;;9.25;4.95;;;;;;;;;;5041268;28;20040;-73
2022/02/03 08:18:49;;;;;;;12.43;5.78;;;;;;;;;;5037041;28;20052;-73
2022/02/03 08:21:17;;;;;;;10.95;5.32;;;;;;;;;;5041822;28;20128;-73
2022/02/03 08:31:21;;;;;;;9.15;4.40;;;8.70;99.90;;;;;;5031871;28;20037;-73
2022/02/03 08:33:53;;;;;;;8.52;4.45;;;9.00;99.90;;;;;;5035050;28;20041;-74
2022/02/03 08:36:20;;;;;;;8.52;4.63;;;7.40;99.90;;;;;;5046962;28;20022;-73
2022/02/03 08:38:50;;;;;;;10.02;4.80;;;;;;;;;;5045937;28;20064;-73
2022/02/03 08:41:15;;;;;;;8.65;4.43;;;9.70;99.90;;;;;;5034169;28;20402;-73
2022/02/03 08:43:43;;;;;;;9.43;4.13;;;9.90;99.90;;;;;;5037504;28;20025;-73
2022/02/03 08:46:12;;;;;;;7.25;4.03;;;10.90;99.90;;;;;;5040955;28;20560;-73
2022/02/03 08:48:39;;;;;;;8.27;4.25;;;8.50;99.90;;;;;;5033114;28;20018;-73
2022/02/03 08:51:07;;;;;;;7.53;4.35;;;11.70;99.90;;;;;;5032997;28;20103;-73
2022/02/03 08:53:42;;;;;;;9.07;4.50;;;;;;;;;;5034257;28;20021;-73
2022/02/03 09:58:24;;;;;;;15.75;7.88;;;10.50;98.40;;;;;;5033094;28;20083;-73
2022/02/03 10:06:20;;;;;;;32.25;18.42;;;10.30;94.90;;;;;;5033723;28;20116;-70
2022/02/03 10:08:52;;;;;;;410.58;45.80;;;10.30;95.30;;;;;;5046431;28;20484;-70
2022/02/03 10:11:29;;;;;;;56.58;12.63;;;8.50;99.90;;;;;;5036461;28;20029;-70
2022/02/03 10:14:01;;;;;;;54.28;12.13;;;11.10;99.90;;;;;;5034865;28;20061;-70
2022/02/03 10:16:35;;;;;;;64.40;16.42;;;11.10;99.90;;;;;;5038290;28;20034;-69
2022/02/03 10:19:16;;;;;;;109.75;19.10;;;11.00;99.90;;;;;;5034704;28;20052;-69
2022/02/03 10:21:43;;;;;;;15.50;3.97;;;11.30;96.40;;;;;;5027963;28;20059;-70
2022/02/03 10:24:15;;;;;;;110.45;12.57;;;10.70;94.70;;;;;;5028738;28;20087;-69
2022/02/03 10:26:46;;;;;;;8.10;3.15;;;10.70;99.90;;;;;;5038201;28;20029;-68
2022/02/03 10:29:13;;;;;;;;;;;10.80;95.30;;;;;;5028011;28;20511;-69
2022/02/03 10:31:42;;;;;;;22.33;4.40;;;10.80;95.20;;;;;;5027551;28;20399;-68
2022/02/03 10:34:12;;;;;;;63.30;8.30;;;10.90;94.40;;;;;;5036971;28;20099;-69
2022/02/03 10:36:51;;;;;;;18.30;5.43;;;11.20;99.20;;;;;;5027941;28;20069;-69
2022/02/03 10:40:06;;;;;;;28.50;6.72;;;11.10;93.60;;;;;;5038704;28;20502;-70
2022/02/03 10:42:59;;;;;;;20.17;5.30;;;11.10;93.60;;;;;;5024198;28;20033;-69
2022/02/03 10:50:52;;;;;;;6.57;3.30;;;11.20;93.40;;;;;;5031126;28;20052;-69
2022/02/03 10:56:07;;;;;;;8.85;4.07;;;11.30;98.70;;;;;;5032178;28;20025;-69
2022/02/03 10:58:49;;;;;;;18.25;4.75;;;11.60;94.00;;;;;;5036678;28;20056;-70
2022/02/03 11:01:46;;;;;;;6.53;3.67;;;;;;;;;;5028738;28;20543;-69
2022/02/03 11:07:04;;;;;;;8.20;3.30;;;11.40;93.30;;;;;;5029438;28;20063;-70
2022/02/03 11:09:46;;;;;;;8.10;3.90;;;12.50;98.50;;;;;;5036824;28;20072;-70
2022/02/03 11:12:17;;;;;;;6.38;3.05;;;11.40;93.20;;;;;;5031977;28;20037;-70
2022/02/03 11:14:43;;;;;;;;;;;11.40;93.60;;;;;;5030866;28;20033;-70
2022/02/03 11:17:10;;;;;;;7.78;3.60;;;10.70;98.30;;;;;;5032520;28;19920;-70
2022/02/03 11:19:37;;;;;;;7.60;3.83;;;11.40;96.60;;;;;;5027529;28;20060;-70
2022/02/03 11:22:08;;;;;;;6.40;3.30;;;12.20;97.80;;;;;;5028852;28;20036;-70
2022/02/03 11:24:41;;;;;;;9.57;3.63;;;9.20;97.80;;;;;;5026738;28;20022;-71
2022/02/03 11:27:26;;;;;;;13.05;4.75;;;9.20;98.90;;;;;;5028720;28;20041;-70
2022/02/03 11:30:26;;;;;;;13.32;4.88;;;11.20;93.50;;;;;;5042153;28;20110;-70
2022/02/03 11:36:12;;;;;;;10.98;5.00;;;11.50;93.40;;;;;;5031646;28;20038;-70
2022/02/03 11:38:40;;;;;;;9.48;4.65;;;11.60;93.10;;;;;;5040677;28;20149;-70
2022/02/03 12:20:38;;;;;;;6.00;3.25;;;12.20;91.00;;;;;;4969291;28;20756;-70
2022/02/03 12:23:24;;;;;;;5.75;3.00;;;13.50;96.20;;;;;;4966671;28;20054;-70
2022/02/03 12:26:04;;;;;;;5.53;3.25;;;13.30;97.10;;;;;;4966736;28;20715;-70
2022/02/03 12:28:47;;;;;;;6.18;3.30;;;12.10;91.60;;;;;;4979819;28;20655;-70
2022/02/03 12:31:40;;;;;;;6.30;3.38;;;13.10;97.10;;;;;;4991550;28;20123;-70
2022/02/03 12:39:59;;;;;;;6.38;3.10;;;12.80;96.10;;;;;;4992159;28;20037;-71
2022/02/03 12:45:31;;;;;;;5.95;2.90;;;12.50;95.00;;;;;;5037916;28;20038;-70
2022/02/03 12:47:55;;;;;;;8.75;5.15;;;;;;;;;;5035710;28;20390;-70
2022/02/03 12:50:23;;;;;;;5.65;3.28;;;12.90;89.90;;;;;;5034716;28;20505;-69
2022/02/03 12:52:49;;;;;;;6.05;2.97;;;14.20;94.60;;;;;;5038673;28;20032;-71
2022/02/03 12:55:42;;;;;;;5.55;2.90;;;13.10;94.10;;;;;;5031882;28;20036;-71
2022/02/03 12:58:13;;;;;;;6.05;2.95;;;14.30;93.30;;;;;;5032517;28;20025;-69
2022/02/03 13:00:53;;;;;;;5.97;3.03;;;13.20;86.70;;;;;;5033367;28;20655;-71
2022/02/03 13:03:27;;;;;;;5.57;3.10;;;13.00;87.40;;;;;;5031460;28;20491;-72
2022/02/03 13:05:56;;;;;;;4.85;2.85;;;13.90;90.70;;;;;;5033612;28;20064;-72
2022/02/03 13:08:36;;;;;;;6.00;3.20;;;12.80;95.20;;;;;;5029665;28;20040;-72
2022/02/03 13:16:36;;;;;;;10.35;6.35;;;12.90;93.00;;;;;;5033812;28;20108;-70
2022/02/03 13:19:20;;;;;;;7.70;4.72;;;12.60;94.90;;;;;;5031312;28;20033;-70
2022/02/03 13:27:11;;;;;;;10.32;3.88;;;12.50;92.40;;;;;;5031723;28;20083;-71
2022/02/03 13:29:55;;;;;;;8.80;3.78;;;12.20;92.30;;;;;;5030419;28;20041;-70
2022/02/03 13:32:28;;;;;;;5.75;3.42;;;11.50;97.00;;;;;;5042261;28;20566;-70
2022/02/03 13:35:13;;;;;;;8.90;5.65;;;12.90;97.70;;;;;;5033751;28;20028;-70
2022/02/03 13:37:43;;;;;;;8.50;5.55;;;12.60;93.60;;;;;;5028346;28;20079;-70
2022/02/03 13:40:15;;;;;;;9.05;5.20;;;16.10;94.40;;;;;;5033685;28;20127;-70
2022/02/03 13:42:48;;;;;;;9.43;6.60;;;12.60;93.70;;;;;;5031530;28;20465;-69
2022/02/03 13:45:15;;;;;;;11.35;8.60;;;13.50;97.90;;;;;;5045801;28;20243;-71
2022/02/03 13:47:41;;;;;;;12.20;8.05;;;12.80;97.20;;;;;;5034123;28;20094;-70
2022/02/03 13:50:11;;;;;;;9.02;7.00;;;10.30;96.50;;;;;;5030839;28;20064;-70
2022/02/03 13:52:47;;;;;;;11.80;8.20;;;12.40;92.50;;;;;;5035454;28;20589;-70
2022/02/03 14:15:10;;;;;;;10.27;5.25;;;12.80;92.10;;;;;;5047396;28;20079;-71
2022/02/03 14:21:17;;;;;;;6.70;3.58;;;12.80;96.80;;;;;;5015321;28;20634;-71
2022/02/03 14:29:00;;;;;;;6.70;3.35;;;12.90;96.00;;;;;;5022707;28;20119;-70
2022/02/03 14:31:26;;;;;;;12.77;7.35;;;13.70;94.10;;;;;;5020058;28;20036;-71
2022/02/03 14:33:53;;;;;;;10.35;6.03;;;13.60;90.40;;;;;;5023998;28;20032;-70
2022/02/03 14:36:22;;;;;;;6.13;3.60;;;13.80;88.60;;;;;;5023246;28;20091;-70
2022/02/03 14:41:31;;;;;;;6.47;3.30;;;13.80;87.80;;;;;;5023054;28;20046;-71
2022/02/03 14:43:59;;;;;;;6.65;3.10;;;13.70;88.60;;;;;;5020868;28;20029;-71
2022/02/03 14:46:26;;;;;;;7.30;3.42;;;13.70;88.30;;;;;;5027006;28;20037;-71
2022/02/03 14:48:52;;;;;;;7.95;3.22;;;13.70;88.10;;;;;;5011282;28;20070;-71
2022/02/03 14:51:23;;;;;;;5.88;3.90;;;13.50;88.50;;;;;;5019304;28;20022;-71
2022/02/03 14:53:54;;;;;;;5.70;3.30;;;13.40;90.00;;;;;;5021964;28;20092;-72
2022/02/03 14:59:04;;;;;;;5.60;3.38;;;13.20;90.40;;;;;;5025688;28;20057;-71
2022/02/03 15:01:33;;;;;;;5.68;3.42;;;13.10;90.60;;;;;;5029012;28;20049;-71
2022/02/03 15:04:02;;;;;;;5.97;3.40;;;13.20;90.60;;;;;;5032139;28;20051;-71
2022/02/03 15:06:35;;;;;;;6.57;3.50;;;13.20;90.90;;;;;;5025828;28;20046;-72
2022/02/03 15:14:14;;;;;;;6.07;3.40;;;13.60;90.50;;;;;;5034913;28;20414;-71
2022/02/03 15:16:40;;;;;;;5.32;3.10;;;13.50;90.00;;;;;;5031136;28;20104;-72
2022/02/03 15:19:07;;;;;;;5.68;3.20;;;13.50;90.40;;;;;;5033997;28;20396;-71
2022/02/03 15:21:37;;;;;;;6.65;4.68;;;13.30;91.00;;;;;;5024841;28;20095;-71
2022/02/03 15:24:03;;;;;;;4.88;3.10;;;13.30;91.20;;;;;;5038804;28;20040;-71
2022/02/03 15:26:29;;;;;;;5.78;3.47;;;13.30;91.20;;;;;;5031935;28;20473;-71
2022/02/03 15:28:55;;;;;;;4.57;2.78;;;13.30;91.20;;;;;;5026389;28;20029;-71
2022/02/03 15:31:26;;;;;;;5.82;3.20;;;13.40;90.60;;;;;;5029302;28;20492;-70
2022/02/03 15:33:58;;;;;;;6.57;3.17;;;13.40;90.60;;;;;;5032054;28;20021;-71
2022/02/03 15:36:24;;;;;;;5.45;2.95;;;13.50;91.00;;;;;;5024903;28;20104;-71
2022/02/03 15:38:50;;;;;;;6.45;2.90;;;13.50;90.60;;;;;;5033337;28;20117;-71
2022/02/03 15:41:27;;;;;;;5.57;3.05;;;13.60;90.30;;;;;;5025304;28;20061;-71
2022/02/03 15:43:55;;;;;;;5.00;2.90;;;13.60;90.70;;;;;;5037889;28;20036;-71
2022/02/03 15:46:22;;;;;;;5.22;3.22;;;13.50;90.10;;;;;;5038743;28;20040;-70
2022/02/03 16:18:22;;;;;;;4.90;2.90;;;12.20;96.90;;;;;;5010116;28;20030;-71
2022/02/03 16:20:57;;;;;;;4.93;2.80;;;12.10;97.30;;;;;;5018212;28;20049;-70
2022/02/03 16:53:13;;;;;;;5.00;2.90;;;11.70;99.90;;;;;;5000013;28;20108;-72
2022/02/03 16:55:42;;;;;;;26.83;17.40;;;11.70;99.90;;;;;;4994068;28;20560;-73
2022/02/03 16:58:10;;;;;;;44.60;35.45;;;11.60;99.90;;;;;;4997538;28;20113;-72
2022/02/03 17:00:36;;;;;;;11.68;6.88;;;11.70;99.90;;;;;;5022777;28;20713;-72
2022/02/03 17:03:02;;;;;;;15.07;10.27;;;11.70;99.90;;;;;;5045885;28;20029;-74
2022/02/03 17:05:29;;;;;;;8.90;6.15;;;11.70;99.90;;;;;;5043146;28;20547;-74
2022/02/03 17:07:55;;;;;;;10.43;4.75;;;11.60;99.90;;;;;;5041251;28;20025;-74
2022/02/03 17:10:24;;;;;;;6.28;3.65;;;11.60;99.90;;;;;;5038209;28;20038;-72
2022/02/03 17:12:50;;;;;;;6.82;3.50;;;11.60;99.90;;;;;;5040147;28;20056;-70
2022/02/03 17:15:21;;;;;;;6.45;4.50;;;11.60;99.90;;;;;;5038090;28;20506;-71
2022/02/03 17:17:50;;;;;;;;;;;11.60;99.90;;;;;;5034965;28;20393;-72
2022/02/03 17:20:45;;;;;;;9.88;5.50;;;11.50;99.90;;;;;;5040833;28;20388;-73
2022/02/03 17:23:16;;;;;;;9.00;5.65;;;11.40;99.90;;;;;;5031245;28;20091;-71
2022/02/03 17:25:56;;;;;;;9.35;5.82;;;11.40;99.90;;;;;;5037938;28;20100;-71
2022/02/03 17:28:46;;;;;;;11.60;7.15;;;11.40;99.90;;;;;;5040672;28;20582;-73
2022/02/03 18:04:37;;;;;;;6.03;4.13;;;11.20;99.90;;;;;;5033134;28;20028;-74
2022/02/03 18:17:43;;;;;;;10.10;6.93;;;11.20;99.90;;;;;;5012735;28;20101;-71
2022/02/03 18:25:57;;;;;;;10.30;7.13;;;11.20;99.90;;;;;;5005035;28;20083;-72
2022/02/03 18:31:02;;;;;;;7.40;4.60;;;11.20;99.90;;;;;;5009530;28;20630;-71
2022/02/03 18:47:22;;;;;;;6.80;3.63;;;11.10;99.90;;;;;;5012992;28;20055;-70
2022/02/03 18:52:20;;;;;;;6.22;4.28;;;11.10;99.90;;;;;;5039949;28;20106;-75
2022/02/03 18:55:07;;;;;;;17.08;11.60;;;11.10;99.90;;;;;;5031900;28;20075;-73
2022/02/03 18:57:48;;;;;;;13.07;8.73;;;11.10;99.90;;;;;;5014155;28;20151;-72
2022/02/03 19:03:22;;;;;;;8.60;5.70;;;11.10;99.90;;;;;;5031066;28;20025;-72
2022/02/03 19:12:35;;;;;;;7.15;4.93;;;11.00;99.90;;;;;;5033400;28;20040;-73
2022/02/03 19:28:12;;;;;;;8.32;6.88;;;11.00;99.90;;;;;;5012992;28;20464;-73
2022/02/03 20:08:17;;;;;;;13.18;10.25;;;10.90;99.90;;;;;;5036874;28;20033;-74
2022/02/03 20:10:46;;;;;;;13.45;10.40;;;10.90;99.90;;;;;;5036502;28;20029;-74
2022/02/03 20:13:13;;;;;;;11.73;8.43;;;10.90;99.90;;;;;;5040927;28;20037;-74
2022/02/03 20:15:41;;;;;;;11.73;8.30;;;10.90;99.90;;;;;;5031518;28;20405;-74
2022/02/03 20:18:12;;;;;;;13.23;8.98;;;10.90;99.90;;;;;;5031689;28;20095;-74
2022/02/03 20:20:39;;;;;;;12.10;9.32;;;10.90;99.90;;;;;;5035075;28;20045;-74
2022/02/03 20:23:09;;;;;;;14.63;11.35;;;10.90;99.90;;;;;;5028146;28;20116;-74
2022/02/03 20:25:36;;;;;;;11.90;9.50;;;10.90;99.90;;;;;;5034408;28;20040;-73
2022/02/03 20:28:04;;;;;;;13.73;10.20;;;10.90;99.90;;;;;;5031607;28;20112;-74
2022/02/03 20:30:30;;;;;;;13.65;10.55;;;10.90;99.90;;;;;;5032536;28;20044;-74
2022/02/03 20:32:56;;;;;;;14.32;10.60;;;10.80;99.90;;;;;;5035966;28;20374;-74
2022/02/03 20:35:22;;;;;;;15.05;11.25;;;10.90;99.90;;;;;;5036848;28;20048;-74
2022/02/03 20:37:48;;;;;;;16.13;11.23;;;10.90;99.90;;;;;;5032655;28;20025;-74
2022/02/03 20:40:15;;;;;;;15.23;11.30;;;10.90;99.90;;;;;;5031700;28;20037;-74
2022/02/03 20:42:41;;;;;;;14.73;10.65;;;10.90;99.90;;;;;;5031319;28;20021;-74
2022/02/03 20:45:07;;;;;;;16.35;11.35;;;10.90;99.90;;;;;;5036077;28;20029;-74
2022/02/03 20:47:33;;;;;;;17.10;11.65;;;10.80;99.90;;;;;;5041913;28;20087;-74
2022/02/03 20:50:01;;;;;;;16.02;11.43;;;10.80;99.90;;;;;;5036709;28;20471;-74
2022/02/03 20:52:27;;;;;;;15.18;10.88;;;10.80;99.90;;;;;;5037495;28;20094;-74
2022/02/03 20:54:53;;;;;;;15.05;11.93;;;10.80;99.90;;;;;;5039332;28;20091;-74
2022/02/03 20:57:19;;;;;;;15.80;11.75;;;10.80;99.90;;;;;;5027961;28;20115;-74
2022/02/03 21:02:29;;;;;;;17.13;11.80;;;10.80;99.90;;;;;;5035575;28;20172;-74
2022/02/03 21:05:10;;;;;;;17.65;12.50;;;10.80;99.90;;;;;;5031943;28;20100;-74
2022/02/03 21:07:36;;;;;;;15.88;11.60;;;10.80;99.90;;;;;;5031742;28;20030;-74
2022/02/03 21:10:06;;;;;;;14.75;11.35;;;10.70;99.90;;;;;;5031331;28;20028;-74
2022/02/03 21:12:32;;;;;;;17.77;11.77;;;10.70;99.90;;;;;;5028140;28;20072;-73
2022/02/03 21:14:59;;;;;;;15.38;11.88;;;10.70;99.90;;;;;;5039780;28;20029;-73
2022/02/03 21:17:28;;;;;;;16.20;12.13;;;10.70;99.90;;;;;;5036723;28;20033;-73
2022/02/03 21:19:55;;;;;;;16.65;12.07;;;10.70;99.90;;;;;;5033773;28;20034;-73
2022/02/03 21:22:21;;;;;;;15.65;11.70;;;10.70;99.90;;;;;;5038902;28;20037;-73
2022/02/03 21:24:48;;;;;;;17.38;12.55;;;10.70;99.90;;;;;;5034374;28;20108;-73
2022/02/03 21:27:18;;;;;;;16.15;11.77;;;10.70;99.90;;;;;;5029808;28;20064;-73
2022/02/03 21:29:45;;;;;;;16.67;12.20;;;10.70;99.90;;;;;;5031780;28;20629;-73
2022/02/03 21:32:11;;;;;;;15.73;11.90;;;10.70;99.90;;;;;;5033868;28;20037;-73
2022/02/03 21:34:37;;;;;;;17.02;12.10;;;10.70;99.90;;;;;;5036463;28;20086;-73
2022/02/03 21:37:03;;;;;;;15.50;11.90;;;10.70;99.90;;;;;;5041081;28;20025;-72
2022/02/03 21:39:28;;;;;;;18.55;11.77;;;10.70;99.90;;;;;;5027446;28;20033;-73
2022/02/03 21:41:54;;;;;;;15.57;11.55;;;10.70;99.90;;;;;;5047199;28;20055;-73
2022/02/03 21:44:22;;;;;;;15.40;11.60;;;10.70;99.90;;;;;;5041589;28;20029;-73
2022/02/03 21:46:48;;;;;;;15.15;11.82;;;10.70;99.90;;;;;;5032389;28;20108;-73
2022/02/03 21:49:15;;;;;;;15.98;11.38;;;10.70;99.90;;;;;;5031371;28;20030;-74
2022/02/03 21:51:44;;;;;;;15.40;11.55;;;10.70;99.90;;;;;;5042185;28;20022;-74
2022/02/03 21:54:11;;;;;;;14.95;11.55;;;10.70;99.90;;;;;;5030103;28;20396;-73
2022/02/03 21:56:37;;;;;;;15.07;11.68;;;10.70;99.90;;;;;;5036395;28;20385;-74
2022/02/03 21:59:07;;;;;;;17.55;12.30;;;10.70;99.90;;;;;;5034185;28;20069;-74
2022/02/03 22:01:40;;;;;;;15.67;11.70;;;10.70;99.90;;;;;;5036559;28;20040;-73
2022/02/03 22:04:08;;;;;;;18.50;12.15;;;10.70;99.90;;;;;;5021748;28;20288;-73
2022/02/03 22:06:34;;;;;;;16.02;11.57;;;10.70;99.90;;;;;;5027782;28;20026;-74
2022/02/03 22:09:00;;;;;;;17.58;12.50;;;10.70;99.90;;;;;;5033003;28;20034;-74
2022/02/03 22:11:27;;;;;;;17.58;12.60;;;10.70;99.90;;;;;;5034674;28;20029;-74
2022/02/03 22:13:53;;;;;;;16.52;12.82;;;10.70;99.90;;;;;;5040974;28;20020;-74
2022/02/03 22:16:24;;;;;;;18.50;12.88;;;10.70;99.90;;;;;;5038363;28;20080;-74
2022/02/03 22:18:53;;;;;;;18.05;12.57;;;10.70;99.90;;;;;;5029593;28;20108;-74
2022/02/03 22:42:13;;;;;;;19.42;13.52;;;10.60;99.90;;;;;;5030035;28;20110;-74
2022/02/03 22:46:11;;;;;;;19.77;13.63;;;10.60;99.90;;;;;;5030133;28;20553;-74
2022/02/03 22:48:44;;;;;;;22.67;14.07;;;10.60;99.90;;;;;;5027357;28;20033;-74
2022/02/03 22:51:13;;;;;;;20.88;14.20;;;10.60;99.90;;;;;;5027365;28;20412;-74
2022/02/03 22:53:44;;;;;;;21.58;14.95;;;10.60;99.90;;;;;;5030342;28;20112;-74
2022/02/03 22:56:13;;;;;;;22.23;15.25;;;10.70;99.90;;;;;;5029518;28;20041;-74
2022/02/03 23:01:12;;;;;;;24.67;15.77;;;10.70;99.90;;;;;;5020375;28;20036;-74
2022/02/03 23:03:40;;;;;;;21.27;14.57;;;10.60;99.90;;;;;;5027274;28;20037;-74
2022/02/03 23:06:07;;;;;;;21.10;14.18;;;10.60;99.90;;;;;;5027789;28;20030;-75
2022/02/03 23:21:52;;;;;;;23.55;15.40;;;10.60;99.90;;;;;;5048031;28;20048;-74
2022/02/03 23:24:20;;;;;;;24.20;14.98;;;10.70;99.90;;;;;;5042967;28;20041;-74
2022/02/03 23:26:52;;;;;;;22.73;14.70;;;10.60;99.90;;;;;;5050724;28;20098;-73
2022/02/03 23:29:20;;;;;;;23.23;14.70;;;10.60;99.90;;;;;;5042647;28;20037;-74
2022/02/03 23:34:44;;;;;;;23.95;15.05;;;10.60;99.90;;;;;;5038290;28;20558;-74
2022/02/03 23:37:11;;;;;;;25.50;15.23;;;10.60;99.90;;;;;;5053380;28;20033;-74
2022/02/03 23:44:41;;;;;;;23.35;14.32;;;10.60;99.90;;;;;;5053475;28;20112;-74
